sensor_id;sensor_type;location;lat;lon;timestamp;P1;durP1;ratioP1;P2;durP2;ratioP2
75774;SDS011;64505;51.458;7.556;2023-05-19T00:01:55;6.43;;;2.50;;
75774;SDS011;64505;51.458;7.556;2023-05-19T00:03:58;6.70;;;2.50;;
75774;SDS011;64505;51.458;7.556;2023-05-19T00:06:03;7.43;;;2.97;;
75774;SDS011;64505;51.458;7.556;2023-05-19T00:08:05;10.50;;;2.85;;
75774;SDS011;64505;51.458;7.556;2023-05-19T00:10:10;7.40;;;2.67;;
75774;SDS011;64505;51.458;7.556;2023-05-19T00:12:12;6.28;;;2.83;;
75774;SDS011;64505;51.458;7.556;2023-05-19T00:14:14;6.22;;;2.30;;
75774;SDS011;64505;51.458;7.556;2023-05-19T00:16:16;6.70;;;2.72;;
75774;SDS011;64505;51.458;7.556;2023-05-19T00:18:18;9.98;;;2.78;;
75774;SDS011;64505;51.458;7.556;2023-05-19T00:20:20;7.90;;;3.15;;
75774;SDS011;64505;51.458;7.556;2023-05-19T00:22:22;7.85;;;2.50;;
75774;SDS011;64505;51.458;7.556;2023-05-19T00:24:24;7.45;;;2.78;;
75774;SDS011;64505;51.458;7.556;2023-05-19T00:26:26;7.97;;;2.92;;
75774;SDS011;64505;51.458;7.556;2023-05-19T00:28:27;6.30;;;2.40;;
75774;SDS011;64505;51.458;7.556;2023-05-19T00:30:29;9.40;;;2.67;;
75774;SDS011;64505;51.458;7.556;2023-05-19T00:32:31;7.60;;;2.50;;
75774;SDS011;64505;51.458;7.556;2023-05-19T00:34:33;6.43;;;2.75;;
75774;SDS011;64505;51.458;7.556;2023-05-19T00:36:35;9.73;;;3.00;;
75774;SDS011;64505;51.458;7.556;2023-05-19T00:38:37;8.05;;;2.25;;
75774;SDS011;64505;51.458;7.556;2023-05-19T00:40:39;7.68;;;2.72;;
75774;SDS011;64505;51.458;7.556;2023-05-19T00:42:40;8.05;;;2.50;;
75774;SDS011;64505;51.458;7.556;2023-05-19T00:44:42;8.20;;;2.92;;
75774;SDS011;64505;51.458;7.556;2023-05-19T00:46:44;7.53;;;2.45;;
75774;SDS011;64505;51.458;7.556;2023-05-19T00:48:45;8.65;;;2.63;;
75774;SDS011;64505;51.458;7.556;2023-05-19T00:50:48;6.20;;;2.83;;
75774;SDS011;64505;51.458;7.556;2023-05-19T00:52:51;6.65;;;2.35;;
75774;SDS011;64505;51.458;7.556;2023-05-19T00:54:52;8.80;;;3.10;;
75774;SDS011;64505;51.458;7.556;2023-05-19T00:56:55;8.52;;;2.60;;
75774;SDS011;64505;51.458;7.556;2023-05-19T00:58:58;9.80;;;2.63;;
75774;SDS011;64505;51.458;7.556;2023-05-19T01:01:01;7.18;;;2.63;;
75774;SDS011;64505;51.458;7.556;2023-05-19T01:03:05;5.05;;;2.22;;
75774;SDS011;64505;51.458;7.556;2023-05-19T01:05:13;8.25;;;2.83;;
75774;SDS011;64505;51.458;7.556;2023-05-19T01:07:15;5.32;;;2.47;;
75774;SDS011;64505;51.458;7.556;2023-05-19T01:09:16;6.93;;;2.58;;
75774;SDS011;64505;51.458;7.556;2023-05-19T01:11:18;8.30;;;2.67;;
75774;SDS011;64505;51.458;7.556;2023-05-19T01:13:20;9.90;;;2.83;;
75774;SDS011;64505;51.458;7.556;2023-05-19T01:15:21;9.77;;;2.80;;
75774;SDS011;64505;51.458;7.556;2023-05-19T01:17:47;9.27;;;2.88;;
75774;SDS011;64505;51.458;7.556;2023-05-19T01:20:06;7.68;;;2.70;;
75774;SDS011;64505;51.458;7.556;2023-05-19T01:22:41;7.10;;;2.70;;
75774;SDS011;64505;51.458;7.556;2023-05-19T01:31:42;7.22;;;2.78;;
75774;SDS011;64505;51.458;7.556;2023-05-19T01:33:48;11.30;;;2.85;;
75774;SDS011;64505;51.458;7.556;2023-05-19T01:35:52;6.10;;;2.25;;
75774;SDS011;64505;51.458;7.556;2023-05-19T01:37:56;9.52;;;2.72;;
75774;SDS011;64505;51.458;7.556;2023-05-19T01:39:59;8.25;;;2.40;;
75774;SDS011;64505;51.458;7.556;2023-05-19T01:42:02;6.45;;;2.38;;
75774;SDS011;64505;51.458;7.556;2023-05-19T01:44:04;9.02;;;2.70;;
75774;SDS011;64505;51.458;7.556;2023-05-19T01:46:06;5.75;;;2.80;;
75774;SDS011;64505;51.458;7.556;2023-05-19T01:48:08;6.82;;;2.50;;
75774;SDS011;64505;51.458;7.556;2023-05-19T01:50:11;7.22;;;2.47;;
75774;SDS011;64505;51.458;7.556;2023-05-19T01:52:13;6.82;;;2.25;;
75774;SDS011;64505;51.458;7.556;2023-05-19T01:54:14;8.95;;;2.65;;
75774;SDS011;64505;51.458;7.556;2023-05-19T01:56:19;5.85;;;2.42;;
75774;SDS011;64505;51.458;7.556;2023-05-19T01:58:44;5.30;;;2.20;;
75774;SDS011;64505;51.458;7.556;2023-05-19T02:03:02;8.52;;;2.05;;
75774;SDS011;64505;51.458;7.556;2023-05-19T02:05:08;6.05;;;2.35;;
75774;SDS011;64505;51.458;7.556;2023-05-19T02:07:36;7.10;;;2.15;;
75774;SDS011;64505;51.458;7.556;2023-05-19T02:14:18;7.13;;;2.63;;
75774;SDS011;64505;51.458;7.556;2023-05-19T02:16:23;5.82;;;2.13;;
75774;SDS011;64505;51.458;7.556;2023-05-19T02:18:28;9.00;;;2.35;;
75774;SDS011;64505;51.458;7.556;2023-05-19T02:20:32;6.72;;;2.70;;
75774;SDS011;64505;51.458;7.556;2023-05-19T02:22:34;7.65;;;2.40;;
75774;SDS011;64505;51.458;7.556;2023-05-19T02:24:36;8.55;;;2.40;;
75774;SDS011;64505;51.458;7.556;2023-05-19T02:26:38;5.43;;;2.20;;
75774;SDS011;64505;51.458;7.556;2023-05-19T02:28:39;6.65;;;2.38;;
75774;SDS011;64505;51.458;7.556;2023-05-19T02:30:41;6.57;;;2.45;;
75774;SDS011;64505;51.458;7.556;2023-05-19T02:32:42;5.72;;;2.25;;
75774;SDS011;64505;51.458;7.556;2023-05-19T02:34:47;6.05;;;2.47;;
75774;SDS011;64505;51.458;7.556;2023-05-19T02:36:48;5.32;;;2.53;;
75774;SDS011;64505;51.458;7.556;2023-05-19T02:38:50;7.03;;;2.90;;
75774;SDS011;64505;51.458;7.556;2023-05-19T02:40:52;8.52;;;2.47;;
75774;SDS011;64505;51.458;7.556;2023-05-19T02:42:54;6.05;;;2.45;;
75774;SDS011;64505;51.458;7.556;2023-05-19T02:44:55;5.90;;;3.00;;
75774;SDS011;64505;51.458;7.556;2023-05-19T02:46:57;8.38;;;2.80;;
75774;SDS011;64505;51.458;7.556;2023-05-19T02:48:59;9.23;;;2.72;;
75774;SDS011;64505;51.458;7.556;2023-05-19T02:51:01;7.07;;;3.00;;
75774;SDS011;64505;51.458;7.556;2023-05-19T02:53:02;6.88;;;2.28;;
75774;SDS011;64505;51.458;7.556;2023-05-19T02:55:04;5.72;;;2.38;;
75774;SDS011;64505;51.458;7.556;2023-05-19T02:57:06;5.28;;;2.40;;
75774;SDS011;64505;51.458;7.556;2023-05-19T02:59:08;4.70;;;2.50;;
75774;SDS011;64505;51.458;7.556;2023-05-19T03:01:09;5.85;;;2.28;;
75774;SDS011;64505;51.458;7.556;2023-05-19T03:03:11;6.57;;;2.25;;
75774;SDS011;64505;51.458;7.556;2023-05-19T03:05:14;6.43;;;2.30;;
75774;SDS011;64505;51.458;7.556;2023-05-19T03:07:15;7.28;;;2.38;;
75774;SDS011;64505;51.458;7.556;2023-05-19T03:09:17;5.85;;;2.38;;
75774;SDS011;64505;51.458;7.556;2023-05-19T03:11:19;5.63;;;2.42;;
75774;SDS011;64505;51.458;7.556;2023-05-19T03:13:21;6.60;;;2.35;;
75774;SDS011;64505;51.458;7.556;2023-05-19T03:15:23;7.13;;;2.83;;
75774;SDS011;64505;51.458;7.556;2023-05-19T03:17:24;6.80;;;2.78;;
75774;SDS011;64505;51.458;7.556;2023-05-19T03:19:26;5.45;;;2.40;;
75774;SDS011;64505;51.458;7.556;2023-05-19T03:21:28;7.32;;;2.72;;
75774;SDS011;64505;51.458;7.556;2023-05-19T03:23:30;6.18;;;3.00;;
75774;SDS011;64505;51.458;7.556;2023-05-19T03:25:32;5.88;;;2.63;;
75774;SDS011;64505;51.458;7.556;2023-05-19T03:27:33;5.13;;;2.97;;
75774;SDS011;64505;51.458;7.556;2023-05-19T03:29:35;6.15;;;2.85;;
75774;SDS011;64505;51.458;7.556;2023-05-19T03:31:37;7.75;;;2.80;;
75774;SDS011;64505;51.458;7.556;2023-05-19T03:33:38;8.30;;;2.60;;
75774;SDS011;64505;51.458;7.556;2023-05-19T03:35:40;6.22;;;2.88;;
75774;SDS011;64505;51.458;7.556;2023-05-19T03:37:42;8.43;;;3.10;;
75774;SDS011;64505;51.458;7.556;2023-05-19T03:39:43;7.07;;;2.67;;
75774;SDS011;64505;51.458;7.556;2023-05-19T03:41:45;5.50;;;3.10;;
75774;SDS011;64505;51.458;7.556;2023-05-19T03:43:47;7.93;;;2.85;;
75774;SDS011;64505;51.458;7.556;2023-05-19T03:45:48;7.40;;;2.53;;
75774;SDS011;64505;51.458;7.556;2023-05-19T03:47:50;6.72;;;2.70;;
75774;SDS011;64505;51.458;7.556;2023-05-19T03:49:52;6.80;;;2.45;;
75774;SDS011;64505;51.458;7.556;2023-05-19T03:51:53;5.55;;;2.15;;
75774;SDS011;64505;51.458;7.556;2023-05-19T03:53:58;7.35;;;3.13;;
75774;SDS011;64505;51.458;7.556;2023-05-19T03:55:59;6.22;;;2.25;;
75774;SDS011;64505;51.458;7.556;2023-05-19T03:58:01;7.65;;;2.90;;
75774;SDS011;64505;51.458;7.556;2023-05-19T04:00:03;7.40;;;2.50;;
75774;SDS011;64505;51.458;7.556;2023-05-19T04:02:06;3.78;;;2.20;;
75774;SDS011;64505;51.458;7.556;2023-05-19T04:04:08;5.32;;;2.50;;
75774;SDS011;64505;51.458;7.556;2023-05-19T04:06:10;7.72;;;2.50;;
75774;SDS011;64505;51.458;7.556;2023-05-19T04:08:13;7.13;;;2.40;;
75774;SDS011;64505;51.458;7.556;2023-05-19T04:10:14;6.60;;;2.70;;
75774;SDS011;64505;51.458;7.556;2023-05-19T04:12:16;5.45;;;2.65;;
75774;SDS011;64505;51.458;7.556;2023-05-19T04:14:17;6.72;;;2.88;;
75774;SDS011;64505;51.458;7.556;2023-05-19T04:16:20;6.18;;;2.53;;
75774;SDS011;64505;51.458;7.556;2023-05-19T04:18:22;5.15;;;2.63;;
75774;SDS011;64505;51.458;7.556;2023-05-19T04:20:23;9.05;;;2.65;;
75774;SDS011;64505;51.458;7.556;2023-05-19T04:22:25;7.82;;;2.63;;
75774;SDS011;64505;51.458;7.556;2023-05-19T04:24:27;4.45;;;2.42;;
75774;SDS011;64505;51.458;7.556;2023-05-19T04:26:31;8.07;;;2.85;;
75774;SDS011;64505;51.458;7.556;2023-05-19T04:28:34;7.90;;;3.00;;
75774;SDS011;64505;51.458;7.556;2023-05-19T04:30:39;7.93;;;3.00;;
75774;SDS011;64505;51.458;7.556;2023-05-19T04:32:42;6.72;;;2.85;;
75774;SDS011;64505;51.458;7.556;2023-05-19T04:34:44;8.98;;;3.17;;
75774;SDS011;64505;51.458;7.556;2023-05-19T04:36:46;9.70;;;3.25;;
75774;SDS011;64505;51.458;7.556;2023-05-19T04:38:48;8.00;;;3.70;;
75774;SDS011;64505;51.458;7.556;2023-05-19T04:40:54;12.85;;;3.45;;
75774;SDS011;64505;51.458;7.556;2023-05-19T04:42:56;7.65;;;3.38;;
75774;SDS011;64505;51.458;7.556;2023-05-19T04:44:58;9.68;;;3.55;;
75774;SDS011;64505;51.458;7.556;2023-05-19T04:46:59;9.52;;;4.00;;
75774;SDS011;64505;51.458;7.556;2023-05-19T04:49:01;7.13;;;3.67;;
75774;SDS011;64505;51.458;7.556;2023-05-19T04:51:03;7.50;;;3.25;;
75774;SDS011;64505;51.458;7.556;2023-05-19T04:53:05;7.68;;;4.13;;
75774;SDS011;64505;51.458;7.556;2023-05-19T04:55:07;8.40;;;3.35;;
75774;SDS011;64505;51.458;7.556;2023-05-19T04:57:11;8.13;;;3.60;;
75774;SDS011;64505;51.458;7.556;2023-05-19T04:59:13;7.05;;;3.83;;
75774;SDS011;64505;51.458;7.556;2023-05-19T05:01:14;5.82;;;2.97;;
75774;SDS011;64505;51.458;7.556;2023-05-19T05:03:16;7.95;;;3.85;;
75774;SDS011;64505;51.458;7.556;2023-05-19T05:05:18;8.45;;;4.05;;
75774;SDS011;64505;51.458;7.556;2023-05-19T05:07:20;8.00;;;3.58;;
75774;SDS011;64505;51.458;7.556;2023-05-19T05:09:22;7.72;;;3.75;;
75774;SDS011;64505;51.458;7.556;2023-05-19T05:11:24;8.18;;;3.63;;
75774;SDS011;64505;51.458;7.556;2023-05-19T05:13:26;12.32;;;4.65;;
75774;SDS011;64505;51.458;7.556;2023-05-19T05:15:28;8.52;;;3.97;;
75774;SDS011;64505;51.458;7.556;2023-05-19T05:17:30;9.65;;;4.20;;
75774;SDS011;64505;51.458;7.556;2023-05-19T05:19:32;6.85;;;3.92;;
75774;SDS011;64505;51.458;7.556;2023-05-19T05:21:34;6.82;;;3.65;;
75774;SDS011;64505;51.458;7.556;2023-05-19T05:23:36;10.27;;;3.92;;
75774;SDS011;64505;51.458;7.556;2023-05-19T05:25:38;8.90;;;3.60;;
75774;SDS011;64505;51.458;7.556;2023-05-19T05:27:41;8.07;;;3.58;;
75774;SDS011;64505;51.458;7.556;2023-05-19T05:29:42;10.40;;;3.40;;
75774;SDS011;64505;51.458;7.556;2023-05-19T05:31:44;7.28;;;3.20;;
75774;SDS011;64505;51.458;7.556;2023-05-19T05:33:45;13.43;;;4.30;;
75774;SDS011;64505;51.458;7.556;2023-05-19T05:35:47;10.98;;;4.13;;
75774;SDS011;64505;51.458;7.556;2023-05-19T05:37:50;9.77;;;3.60;;
75774;SDS011;64505;51.458;7.556;2023-05-19T05:39:52;7.28;;;3.65;;
75774;SDS011;64505;51.458;7.556;2023-05-19T05:41:53;8.95;;;3.20;;
75774;SDS011;64505;51.458;7.556;2023-05-19T05:43:55;8.77;;;3.60;;
75774;SDS011;64505;51.458;7.556;2023-05-19T05:45:57;9.63;;;3.22;;
75774;SDS011;64505;51.458;7.556;2023-05-19T05:47:59;7.72;;;3.05;;
75774;SDS011;64505;51.458;7.556;2023-05-19T05:50:01;6.25;;;3.22;;
75774;SDS011;64505;51.458;7.556;2023-05-19T05:52:03;8.20;;;3.08;;
75774;SDS011;64505;51.458;7.556;2023-05-19T05:54:07;7.47;;;3.47;;
75774;SDS011;64505;51.458;7.556;2023-05-19T05:56:12;9.27;;;3.15;;
75774;SDS011;64505;51.458;7.556;2023-05-19T05:58:14;9.10;;;3.40;;
75774;SDS011;64505;51.458;7.556;2023-05-19T06:00:17;9.38;;;3.58;;
75774;SDS011;64505;51.458;7.556;2023-05-19T06:02:19;6.85;;;3.10;;
75774;SDS011;64505;51.458;7.556;2023-05-19T06:04:22;9.65;;;3.95;;
75774;SDS011;64505;51.458;7.556;2023-05-19T06:06:23;7.50;;;3.65;;
75774;SDS011;64505;51.458;7.556;2023-05-19T06:08:25;8.02;;;3.65;;
75774;SDS011;64505;51.458;7.556;2023-05-19T06:10:27;11.70;;;3.80;;
75774;SDS011;64505;51.458;7.556;2023-05-19T06:12:29;7.63;;;3.13;;
75774;SDS011;64505;51.458;7.556;2023-05-19T06:14:30;12.02;;;4.13;;
75774;SDS011;64505;51.458;7.556;2023-05-19T06:16:32;10.30;;;3.40;;
75774;SDS011;64505;51.458;7.556;2023-05-19T06:18:34;6.95;;;2.97;;
75774;SDS011;64505;51.458;7.556;2023-05-19T06:20:39;7.47;;;2.90;;
75774;SDS011;64505;51.458;7.556;2023-05-19T06:22:41;6.57;;;3.30;;
75774;SDS011;64505;51.458;7.556;2023-05-19T06:24:43;13.20;;;3.50;;
75774;SDS011;64505;51.458;7.556;2023-05-19T06:26:44;6.53;;;2.80;;
75774;SDS011;64505;51.458;7.556;2023-05-19T06:28:46;6.88;;;2.58;;
75774;SDS011;64505;51.458;7.556;2023-05-19T06:30:48;8.55;;;3.40;;
75774;SDS011;64505;51.458;7.556;2023-05-19T06:32:49;6.80;;;2.60;;
75774;SDS011;64505;51.458;7.556;2023-05-19T06:34:51;8.52;;;2.97;;
75774;SDS011;64505;51.458;7.556;2023-05-19T06:36:55;7.38;;;2.78;;
75774;SDS011;64505;51.458;7.556;2023-05-19T06:38:57;8.40;;;2.95;;
75774;SDS011;64505;51.458;7.556;2023-05-19T06:41:02;6.57;;;2.72;;
75774;SDS011;64505;51.458;7.556;2023-05-19T06:43:03;8.48;;;2.53;;
75774;SDS011;64505;51.458;7.556;2023-05-19T06:45:05;5.68;;;2.22;;
75774;SDS011;64505;51.458;7.556;2023-05-19T06:47:07;8.13;;;2.83;;
75774;SDS011;64505;51.458;7.556;2023-05-19T06:49:09;13.65;;;3.20;;
75774;SDS011;64505;51.458;7.556;2023-05-19T06:51:11;6.57;;;2.90;;
75774;SDS011;64505;51.458;7.556;2023-05-19T06:53:13;7.63;;;3.20;;
75774;SDS011;64505;51.458;7.556;2023-05-19T06:55:14;7.53;;;2.88;;
75774;SDS011;64505;51.458;7.556;2023-05-19T06:57:16;9.07;;;2.60;;
75774;SDS011;64505;51.458;7.556;2023-05-19T06:59:17;9.10;;;2.67;;
75774;SDS011;64505;51.458;7.556;2023-05-19T07:01:22;5.35;;;2.45;;
75774;SDS011;64505;51.458;7.556;2023-05-19T07:03:23;7.72;;;2.60;;
75774;SDS011;64505;51.458;7.556;2023-05-19T07:05:25;6.85;;;2.47;;
75774;SDS011;64505;51.458;7.556;2023-05-19T07:07:27;8.60;;;2.47;;
75774;SDS011;64505;51.458;7.556;2023-05-19T07:09:28;10.68;;;2.50;;
75774;SDS011;64505;51.458;7.556;2023-05-19T07:11:30;9.45;;;2.22;;
75774;SDS011;64505;51.458;7.556;2023-05-19T07:13:32;8.10;;;2.70;;
75774;SDS011;64505;51.458;7.556;2023-05-19T07:15:33;6.05;;;2.33;;
75774;SDS011;64505;51.458;7.556;2023-05-19T07:17:35;8.65;;;2.75;;
75774;SDS011;64505;51.458;7.556;2023-05-19T07:19:37;7.22;;;2.35;;
75774;SDS011;64505;51.458;7.556;2023-05-19T07:21:38;4.45;;;1.98;;
75774;SDS011;64505;51.458;7.556;2023-05-19T07:23:40;6.85;;;2.17;;
75774;SDS011;64505;51.458;7.556;2023-05-19T07:25:45;9.57;;;2.38;;
75774;SDS011;64505;51.458;7.556;2023-05-19T07:27:46;5.20;;;2.03;;
75774;SDS011;64505;51.458;7.556;2023-05-19T07:29:48;7.00;;;2.28;;
75774;SDS011;64505;51.458;7.556;2023-05-19T07:31:49;6.63;;;2.13;;
75774;SDS011;64505;51.458;7.556;2023-05-19T07:33:58;6.50;;;2.22;;
75774;SDS011;64505;51.458;7.556;2023-05-19T07:36:00;6.90;;;2.40;;
75774;SDS011;64505;51.458;7.556;2023-05-19T07:38:01;7.38;;;2.10;;
75774;SDS011;64505;51.458;7.556;2023-05-19T07:40:04;7.50;;;2.45;;
75774;SDS011;64505;51.458;7.556;2023-05-19T07:42:09;8.27;;;2.38;;
75774;SDS011;64505;51.458;7.556;2023-05-19T07:44:11;5.75;;;2.28;;
75774;SDS011;64505;51.458;7.556;2023-05-19T07:46:12;7.00;;;2.10;;
75774;SDS011;64505;51.458;7.556;2023-05-19T07:48:14;7.38;;;2.08;;
75774;SDS011;64505;51.458;7.556;2023-05-19T07:50:18;10.73;;;2.20;;
75774;SDS011;64505;51.458;7.556;2023-05-19T07:52:20;7.00;;;1.90;;
75774;SDS011;64505;51.458;7.556;2023-05-19T07:54:22;6.60;;;2.20;;
75774;SDS011;64505;51.458;7.556;2023-05-19T07:56:23;5.07;;;1.80;;
75774;SDS011;64505;51.458;7.556;2023-05-19T07:58:25;5.60;;;1.73;;
75774;SDS011;64505;51.458;7.556;2023-05-19T08:00:27;6.55;;;1.85;;
75774;SDS011;64505;51.458;7.556;2023-05-19T08:02:28;10.10;;;2.30;;
75774;SDS011;64505;51.458;7.556;2023-05-19T08:04:30;5.82;;;1.63;;
75774;SDS011;64505;51.458;7.556;2023-05-19T08:06:33;6.18;;;1.70;;
75774;SDS011;64505;51.458;7.556;2023-05-19T08:08:35;5.32;;;1.50;;
75774;SDS011;64505;51.458;7.556;2023-05-19T08:10:37;8.35;;;1.58;;
75774;SDS011;64505;51.458;7.556;2023-05-19T08:12:38;10.23;;;1.67;;
75774;SDS011;64505;51.458;7.556;2023-05-19T08:14:40;6.68;;;1.70;;
75774;SDS011;64505;51.458;7.556;2023-05-19T08:16:42;8.13;;;1.90;;
75774;SDS011;64505;51.458;7.556;2023-05-19T08:18:45;7.22;;;1.85;;
75774;SDS011;64505;51.458;7.556;2023-05-19T08:20:46;5.43;;;1.70;;
75774;SDS011;64505;51.458;7.556;2023-05-19T08:22:48;3.92;;;1.60;;
75774;SDS011;64505;51.458;7.556;2023-05-19T08:24:50;6.88;;;1.65;;
75774;SDS011;64505;51.458;7.556;2023-05-19T08:26:52;5.53;;;1.52;;
75774;SDS011;64505;51.458;7.556;2023-05-19T08:28:53;5.43;;;1.50;;
75774;SDS011;64505;51.458;7.556;2023-05-19T08:30:55;6.85;;;1.30;;
75774;SDS011;64505;51.458;7.556;2023-05-19T08:33:00;4.07;;;1.40;;
75774;SDS011;64505;51.458;7.556;2023-05-19T08:35:02;4.85;;;1.52;;
75774;SDS011;64505;51.458;7.556;2023-05-19T08:37:04;9.40;;;1.52;;
75774;SDS011;64505;51.458;7.556;2023-05-19T08:39:06;7.22;;;1.40;;
75774;SDS011;64505;51.458;7.556;2023-05-19T08:41:07;9.65;;;1.65;;
75774;SDS011;64505;51.458;7.556;2023-05-19T08:43:09;5.90;;;1.50;;
75774;SDS011;64505;51.458;7.556;2023-05-19T08:45:14;3.70;;;1.20;;
75774;SDS011;64505;51.458;7.556;2023-05-19T08:47:16;3.95;;;1.30;;
75774;SDS011;64505;51.458;7.556;2023-05-19T08:49:18;5.47;;;1.50;;
75774;SDS011;64505;51.458;7.556;2023-05-19T08:53:38;6.30;;;1.45;;
75774;SDS011;64505;51.458;7.556;2023-05-19T08:56:00;3.92;;;1.20;;
75774;SDS011;64505;51.458;7.556;2023-05-19T08:58:11;6.50;;;1.35;;
75774;SDS011;64505;51.458;7.556;2023-05-19T09:00:13;4.30;;;1.25;;
75774;SDS011;64505;51.458;7.556;2023-05-19T09:02:18;3.88;;;1.23;;
75774;SDS011;64505;51.458;7.556;2023-05-19T09:04:20;6.80;;;1.65;;
75774;SDS011;64505;51.458;7.556;2023-05-19T09:06:22;6.03;;;1.67;;
75774;SDS011;64505;51.458;7.556;2023-05-19T09:08:25;3.90;;;1.33;;
75774;SDS011;64505;51.458;7.556;2023-05-19T09:10:27;5.03;;;1.00;;
75774;SDS011;64505;51.458;7.556;2023-05-19T09:12:29;5.50;;;1.60;;
75774;SDS011;64505;51.458;7.556;2023-05-19T09:14:31;6.30;;;1.52;;
75774;SDS011;64505;51.458;7.556;2023-05-19T09:16:33;7.63;;;1.10;;
75774;SDS011;64505;51.458;7.556;2023-05-19T09:18:37;6.97;;;1.50;;
75774;SDS011;64505;51.458;7.556;2023-05-19T09:20:41;3.58;;;1.17;;
75774;SDS011;64505;51.458;7.556;2023-05-19T09:22:44;4.13;;;1.20;;
75774;SDS011;64505;51.458;7.556;2023-05-19T09:24:47;5.70;;;1.10;;
75774;SDS011;64505;51.458;7.556;2023-05-19T09:26:49;7.88;;;1.50;;
75774;SDS011;64505;51.458;7.556;2023-05-19T09:28:51;3.10;;;1.10;;
75774;SDS011;64505;51.458;7.556;2023-05-19T09:30:58;5.05;;;1.13;;
75774;SDS011;64505;51.458;7.556;2023-05-19T09:33:04;7.05;;;1.65;;
75774;SDS011;64505;51.458;7.556;2023-05-19T09:35:10;6.38;;;1.45;;
75774;SDS011;64505;51.458;7.556;2023-05-19T09:37:13;4.88;;;1.20;;
75774;SDS011;64505;51.458;7.556;2023-05-19T09:39:15;5.00;;;1.38;;
75774;SDS011;64505;51.458;7.556;2023-05-19T09:41:17;6.45;;;1.50;;
75774;SDS011;64505;51.458;7.556;2023-05-19T09:43:19;7.07;;;1.60;;
75774;SDS011;64505;51.458;7.556;2023-05-19T09:45:21;4.65;;;1.42;;
75774;SDS011;64505;51.458;7.556;2023-05-19T09:47:23;6.78;;;1.40;;
75774;SDS011;64505;51.458;7.556;2023-05-19T09:49:25;8.48;;;1.35;;
75774;SDS011;64505;51.458;7.556;2023-05-19T09:51:34;3.00;;;1.10;;
75774;SDS011;64505;51.458;7.556;2023-05-19T09:53:37;6.47;;;1.30;;
75774;SDS011;64505;51.458;7.556;2023-05-19T09:55:39;5.88;;;1.40;;
75774;SDS011;64505;51.458;7.556;2023-05-19T09:57:43;4.55;;;1.23;;
75774;SDS011;64505;51.458;7.556;2023-05-19T09:59:45;7.07;;;1.75;;
75774;SDS011;64505;51.458;7.556;2023-05-19T10:01:47;3.15;;;1.42;;
75774;SDS011;64505;51.458;7.556;2023-05-19T10:03:49;7.80;;;1.63;;
75774;SDS011;64505;51.458;7.556;2023-05-19T10:05:52;6.75;;;1.80;;
75774;SDS011;64505;51.458;7.556;2023-05-19T10:07:55;5.28;;;1.38;;
75774;SDS011;64505;51.458;7.556;2023-05-19T10:09:57;5.85;;;1.40;;
75774;SDS011;64505;51.458;7.556;2023-05-19T10:12:00;7.43;;;1.50;;
75774;SDS011;64505;51.458;7.556;2023-05-19T10:14:03;6.15;;;1.23;;
75774;SDS011;64505;51.458;7.556;2023-05-19T10:16:05;5.47;;;1.40;;
75774;SDS011;64505;51.458;7.556;2023-05-19T10:18:09;6.30;;;1.67;;
75774;SDS011;64505;51.458;7.556;2023-05-19T10:20:16;4.43;;;1.30;;
75774;SDS011;64505;51.458;7.556;2023-05-19T10:22:18;6.63;;;1.38;;
75774;SDS011;64505;51.458;7.556;2023-05-19T10:24:19;5.40;;;1.30;;
75774;SDS011;64505;51.458;7.556;2023-05-19T10:26:21;4.25;;;1.38;;
75774;SDS011;64505;51.458;7.556;2023-05-19T10:28:25;4.88;;;1.60;;
75774;SDS011;64505;51.458;7.556;2023-05-19T10:30:42;6.22;;;1.45;;
75774;SDS011;64505;51.458;7.556;2023-05-19T10:32:46;8.40;;;1.45;;
75774;SDS011;64505;51.458;7.556;2023-05-19T10:37:12;6.38;;;1.85;;
75774;SDS011;64505;51.458;7.556;2023-05-19T10:39:28;4.50;;;1.55;;
75774;SDS011;64505;51.458;7.556;2023-05-19T10:41:45;3.10;;;1.50;;
75774;SDS011;64505;51.458;7.556;2023-05-19T10:44:15;9.25;;;1.50;;
75774;SDS011;64505;51.458;7.556;2023-05-19T10:46:35;6.88;;;1.40;;
75774;SDS011;64505;51.458;7.556;2023-05-19T10:48:37;4.95;;;1.33;;
75774;SDS011;64505;51.458;7.556;2023-05-19T10:50:38;5.03;;;1.33;;
75774;SDS011;64505;51.458;7.556;2023-05-19T10:52:40;5.95;;;1.40;;
75774;SDS011;64505;51.458;7.556;2023-05-19T10:54:42;7.45;;;1.42;;
75774;SDS011;64505;51.458;7.556;2023-05-19T10:56:47;3.92;;;1.33;;
75774;SDS011;64505;51.458;7.556;2023-05-19T10:58:49;4.75;;;1.60;;
75774;SDS011;64505;51.458;7.556;2023-05-19T11:00:54;3.67;;;1.23;;
75774;SDS011;64505;51.458;7.556;2023-05-19T11:03:13;5.32;;;1.63;;
75774;SDS011;64505;51.458;7.556;2023-05-19T11:05:22;5.97;;;1.60;;
75774;SDS011;64505;51.458;7.556;2023-05-19T11:07:28;5.60;;;1.40;;
75774;SDS011;64505;51.458;7.556;2023-05-19T11:09:31;8.18;;;1.70;;
75774;SDS011;64505;51.458;7.556;2023-05-19T11:11:44;4.32;;;1.65;;
75774;SDS011;64505;51.458;7.556;2023-05-19T11:13:50;7.00;;;1.52;;
75774;SDS011;64505;51.458;7.556;2023-05-19T11:15:53;5.82;;;1.50;;
75774;SDS011;64505;51.458;7.556;2023-05-19T11:17:56;7.97;;;1.58;;
75774;SDS011;64505;51.458;7.556;2023-05-19T11:20:01;3.63;;;1.33;;
75774;SDS011;64505;51.458;7.556;2023-05-19T11:24:31;6.25;;;1.55;;
75774;SDS011;64505;51.458;7.556;2023-05-19T11:26:40;3.17;;;1.05;;
75774;SDS011;64505;51.458;7.556;2023-05-19T11:28:46;6.55;;;1.70;;
75774;SDS011;64505;51.458;7.556;2023-05-19T11:30:48;4.57;;;1.13;;
75774;SDS011;64505;51.458;7.556;2023-05-19T11:32:51;5.60;;;1.42;;
75774;SDS011;64505;51.458;7.556;2023-05-19T11:34:54;6.22;;;1.20;;
75774;SDS011;64505;51.458;7.556;2023-05-19T11:36:57;7.30;;;1.63;;
75774;SDS011;64505;51.458;7.556;2023-05-19T11:39:00;4.32;;;1.30;;
75774;SDS011;64505;51.458;7.556;2023-05-19T11:41:02;7.03;;;1.40;;
75774;SDS011;64505;51.458;7.556;2023-05-19T11:43:04;6.20;;;1.42;;
75774;SDS011;64505;51.458;7.556;2023-05-19T11:45:06;5.43;;;1.40;;
75774;SDS011;64505;51.458;7.556;2023-05-19T11:47:08;4.15;;;1.40;;
75774;SDS011;64505;51.458;7.556;2023-05-19T11:49:10;8.15;;;1.35;;
75774;SDS011;64505;51.458;7.556;2023-05-19T11:51:12;5.85;;;1.40;;
75774;SDS011;64505;51.458;7.556;2023-05-19T11:53:14;6.63;;;1.33;;
75774;SDS011;64505;51.458;7.556;2023-05-19T11:55:22;6.68;;;1.50;;
75774;SDS011;64505;51.458;7.556;2023-05-19T11:57:23;4.85;;;1.48;;
75774;SDS011;64505;51.458;7.556;2023-05-19T11:59:32;5.15;;;1.08;;
75774;SDS011;64505;51.458;7.556;2023-05-19T12:01:36;4.30;;;1.40;;
75774;SDS011;64505;51.458;7.556;2023-05-19T12:03:38;5.88;;;1.10;;
75774;SDS011;64505;51.458;7.556;2023-05-19T12:05:42;4.50;;;1.50;;
75774;SDS011;64505;51.458;7.556;2023-05-19T12:07:48;3.20;;;1.20;;
75774;SDS011;64505;51.458;7.556;2023-05-19T12:09:51;4.70;;;1.40;;
75774;SDS011;64505;51.458;7.556;2023-05-19T12:11:55;4.40;;;1.17;;
75774;SDS011;64505;51.458;7.556;2023-05-19T12:13:57;5.20;;;1.40;;
75774;SDS011;64505;51.458;7.556;2023-05-19T12:15:59;5.72;;;1.13;;
75774;SDS011;64505;51.458;7.556;2023-05-19T12:18:02;5.75;;;1.50;;
75774;SDS011;64505;51.458;7.556;2023-05-19T12:20:04;5.18;;;1.30;;
75774;SDS011;64505;51.458;7.556;2023-05-19T12:22:06;6.65;;;1.40;;
75774;SDS011;64505;51.458;7.556;2023-05-19T12:24:08;5.53;;;1.25;;
75774;SDS011;64505;51.458;7.556;2023-05-19T12:26:11;4.68;;;1.23;;
75774;SDS011;64505;51.458;7.556;2023-05-19T12:28:14;5.25;;;1.25;;
75774;SDS011;64505;51.458;7.556;2023-05-19T12:30:16;5.32;;;1.48;;
75774;SDS011;64505;51.458;7.556;2023-05-19T12:32:22;5.45;;;1.30;;
75774;SDS011;64505;51.458;7.556;2023-05-19T12:34:27;3.90;;;1.30;;
75774;SDS011;64505;51.458;7.556;2023-05-19T12:36:30;3.22;;;1.13;;
75774;SDS011;64505;51.458;7.556;2023-05-19T12:38:32;3.90;;;1.17;;
75774;SDS011;64505;51.458;7.556;2023-05-19T12:40:37;6.03;;;1.60;;
75774;SDS011;64505;51.458;7.556;2023-05-19T12:42:45;4.60;;;1.23;;
75774;SDS011;64505;51.458;7.556;2023-05-19T12:44:49;4.18;;;1.13;;